createdAt,value
2017-11-09T00:00:57.016Z,66.47
2017-11-09T00:02:57.985Z,69.03
2017-11-09T00:05:05.012Z,68.10
2017-11-09T00:07:06.006Z,67.37
2017-11-09T00:09:07.031Z,68.80
2017-11-09T00:11:08.016Z,65.27
2017-11-09T00:13:09.013Z,67.23
2017-11-09T00:15:10.716Z,71.27
2017-11-09T00:17:11.683Z,68.97
2017-11-09T00:19:12.680Z,68.80
2017-11-09T00:21:14.414Z,69.00
2017-11-09T00:23:15.557Z,64.50
2017-11-09T00:25:16.549Z,63.87
2017-11-09T00:27:17.546Z,63.70
2017-11-09T00:29:18.532Z,63.70
2017-11-09T00:31:20.241Z,63.70
2017-11-09T00:33:21.273Z,63.57
2017-11-09T00:35:22.264Z,65.07
2017-11-09T00:37:23.991Z,66.47
2017-11-09T00:39:24.956Z,72.93
2017-11-09T00:41:26.018Z,82.22
2017-11-09T00:43:26.996Z,68.80
2017-11-09T00:45:28.069Z,61.43
2017-11-09T00:47:29.082Z,60.57
2017-11-09T00:49:30.197Z,60.17
2017-11-09T00:51:31.173Z,65.50
2017-11-09T00:53:32.159Z,62.30
2017-11-09T00:55:33.110Z,59.30
2017-11-09T00:57:34.167Z,61.87
2017-11-09T00:59:35.170Z,60.40
2017-11-09T01:01:36.922Z,63.60
2017-11-09T01:03:37.924Z,66.73
2017-11-09T01:05:38.913Z,64.30
2017-11-09T01:07:39.909Z,66.13
2017-11-09T01:09:40.876Z,66.57
2017-11-09T01:11:41.859Z,60.53
2017-11-09T01:13:42.921Z,61.43
2017-11-09T01:15:44.612Z,63.17
2017-11-09T01:17:45.614Z,62.83
2017-11-09T01:19:47.386Z,60.20
2017-11-09T01:21:48.337Z,60.07
2017-11-09T01:23:49.316Z,61.13
2017-11-09T01:25:50.308Z,64.70
2017-11-09T01:27:51.315Z,62.90
2017-11-09T01:29:52.289Z,64.73
2017-11-09T01:31:53.261Z,62.30
2017-11-09T01:33:54.345Z,62.83
2017-11-09T01:35:55.359Z,59.07
2017-11-09T01:37:56.389Z,65.30
2017-11-09T01:39:57.401Z,59.50
2017-11-09T01:41:58.402Z,58.50
2017-11-09T01:43:59.387Z,57.30
2017-11-09T01:46:00.424Z,54.67
2017-11-09T01:48:01.414Z,55.80
2017-11-09T01:50:02.641Z,58.03
2017-11-09T01:52:03.697Z,56.73
2017-11-09T01:54:04.690Z,58.37
2017-11-09T01:56:05.697Z,60.37
2017-11-09T01:58:06.699Z,57.03
2017-11-09T02:00:07.854Z,56.30
2017-11-09T02:02:08.867Z,55.07
2017-11-09T02:04:09.963Z,60.73
2017-11-09T02:06:10.970Z,61.20
2017-11-09T02:08:12.698Z,67.30
2017-11-09T02:10:13.706Z,70.27
2017-11-09T02:12:14.674Z,71.53
2017-11-09T02:14:15.686Z,70.93
2017-11-09T02:16:17.440Z,74.00
2017-11-09T02:18:19.177Z,72.53
2017-11-09T02:20:20.182Z,77.30
2017-11-09T02:22:21.192Z,71.73
2017-11-09T02:24:22.363Z,76.80
2017-11-09T02:26:23.343Z,71.47
2017-11-09T02:28:24.323Z,74.17
2017-11-09T02:30:25.300Z,74.80
2017-11-09T02:32:26.314Z,75.10
2017-11-09T02:34:27.342Z,77.37
2017-11-09T02:36:28.447Z,76.77
2017-11-09T02:38:29.414Z,77.00
2017-11-09T02:40:30.381Z,76.17
2017-11-09T02:42:31.385Z,77.17
2017-11-09T02:44:32.377Z,76.30
2017-11-09T02:46:33.366Z,74.67
2017-11-09T02:48:35.133Z,78.33
2017-11-09T02:50:36.147Z,80.53
2017-11-09T02:52:37.113Z,80.50
2017-11-09T02:54:38.110Z,75.63
2017-11-09T02:56:39.115Z,76.70
2017-11-09T02:58:40.125Z,82.63
2017-11-09T03:00:41.119Z,82.10
2017-11-09T03:02:42.919Z,79.80
2017-11-09T03:04:43.934Z,77.80
2017-11-09T03:06:44.974Z,79.00
2017-11-09T03:08:45.978Z,78.87
2017-11-09T03:10:46.954Z,79.07
2017-11-09T03:12:48.666Z,81.30
2017-11-09T03:14:49.665Z,78.93
2017-11-09T03:16:51.413Z,78.57
2017-11-09T03:18:52.490Z,77.93
2017-11-09T03:20:54.201Z,77.83
2017-11-09T03:22:55.174Z,76.43
2017-11-09T03:25:03.455Z,75.70
2017-11-09T03:27:04.493Z,72.53
2017-11-09T03:29:05.517Z,74.13
2017-11-09T03:31:06.883Z,75.23
2017-11-09T03:33:08.803Z,77.00
2017-11-09T03:35:09.900Z,74.40
2017-11-09T03:37:11.035Z,71.47
2017-11-09T03:39:12.135Z,73.60
2017-11-09T03:41:13.196Z,74.80
2017-11-09T03:43:14.210Z,77.50
2017-11-09T03:45:15.255Z,73.47
2017-11-09T03:47:16.259Z,76.37
2017-11-09T03:49:17.386Z,75.50
2017-11-09T03:51:18.403Z,74.47
2017-11-09T03:53:19.399Z,72.27
2017-11-09T03:55:20.444Z,75.20
2017-11-09T03:57:22.312Z,74.77
2017-11-09T03:59:23.358Z,77.17
2017-11-09T04:01:25.195Z,74.97
2017-11-09T04:03:26.161Z,73.67
2017-11-09T04:05:29.379Z,76.37
2017-11-09T04:07:30.424Z,78.10
2017-11-09T04:09:31.428Z,81.17
2017-11-09T04:11:32.428Z,76.37
2017-11-09T04:13:33.586Z,78.30
2017-11-09T04:15:34.628Z,76.03
2017-11-09T04:17:35.615Z,76.00
2017-11-09T04:19:36.635Z,78.17
2017-11-09T04:21:37.642Z,83.17
2017-11-09T04:23:38.829Z,76.67
2017-11-09T04:25:39.834Z,77.60
2017-11-09T04:27:40.830Z,74.93
2017-11-09T04:29:41.823Z,78.23
2017-11-09T04:31:42.853Z,75.23
2017-11-09T04:33:43.886Z,76.57
2017-11-09T04:35:44.882Z,79.13
2017-11-09T04:37:46.005Z,80.77
2017-11-09T04:39:47.122Z,80.67
2017-11-09T04:41:48.159Z,78.27
2017-11-09T04:43:49.181Z,76.37
2017-11-09T04:45:50.268Z,77.13
2017-11-09T04:47:51.309Z,76.83
2017-11-09T04:49:52.297Z,81.17
2017-11-09T04:51:53.321Z,81.37
2017-11-09T04:53:54.309Z,81.60
2017-11-09T04:55:56.154Z,79.00
2017-11-09T04:57:57.855Z,74.47
2017-11-09T04:59:59.815Z,78.60
2017-11-09T05:02:00.953Z,80.10
2017-11-09T05:04:02.742Z,76.47
2017-11-09T05:06:03.749Z,80.47
2017-11-09T05:08:04.913Z,78.50
2017-11-09T05:10:06.789Z,79.67
2017-11-09T05:12:08.665Z,80.90
2017-11-09T05:14:10.482Z,79.50
2017-11-09T05:16:11.472Z,79.37
2017-11-09T05:18:13.253Z,84.00
2017-11-09T05:20:17.004Z,81.53
2017-11-09T05:22:18.135Z,78.30
2017-11-09T05:24:19.129Z,74.23
2017-11-09T05:26:20.837Z,83.47
2017-11-09T05:28:21.886Z,76.90
2017-11-09T05:30:22.918Z,83.23
2017-11-09T05:32:23.913Z,79.40
2017-11-09T05:34:24.897Z,79.33
2017-11-09T05:36:25.877Z,83.23
2017-11-09T05:38:26.868Z,82.50
2017-11-09T05:40:27.847Z,84.50
2017-11-09T05:42:28.858Z,81.20
2017-11-09T05:44:29.918Z,82.20
2017-11-09T05:46:30.917Z,82.10
2017-11-09T05:48:31.943Z,76.47
2017-11-09T05:50:32.936Z,81.10
2017-11-09T05:52:33.915Z,82.40
2017-11-09T05:54:34.990Z,81.27
2017-11-09T05:56:36.035Z,81.00
2017-11-09T05:58:37.031Z,81.20
2017-11-09T06:00:38.798Z,78.77
2017-11-09T06:02:39.762Z,79.60
2017-11-09T06:04:40.787Z,80.97
2017-11-09T06:06:41.841Z,79.70
2017-11-09T06:08:44.724Z,79.20
2017-11-09T06:10:45.810Z,76.47
2017-11-09T06:12:47.019Z,78.70
2017-11-09T06:14:48.132Z,75.97
2017-11-09T06:16:49.177Z,76.30
2017-11-09T06:18:50.183Z,79.70
2017-11-09T06:20:51.206Z,78.57
2017-11-09T06:22:52.182Z,76.60
2017-11-09T06:24:53.941Z,77.90
2017-11-09T06:26:55.095Z,76.27
2017-11-09T06:28:56.835Z,75.20
2017-11-09T06:30:57.990Z,73.37
2017-11-09T06:32:58.993Z,75.50
2017-11-09T06:34:59.992Z,78.30
2017-11-09T06:37:01.005Z,76.83
2017-11-09T06:39:02.161Z,75.37
2017-11-09T06:41:03.157Z,72.33
2017-11-09T06:43:04.874Z,77.87
2017-11-09T06:45:05.849Z,71.07
2017-11-09T06:47:06.987Z,78.87
2017-11-09T06:49:08.075Z,79.70
2017-11-09T06:51:09.077Z,79.30
2017-11-09T06:53:10.075Z,78.97
2017-11-09T06:55:11.031Z,83.10
2017-11-09T06:57:11.980Z,82.77
2017-11-09T06:59:12.929Z,84.27
2017-11-09T07:01:13.872Z,84.07
2017-11-09T07:03:14.825Z,84.60
2017-11-09T07:05:15.791Z,78.77
2017-11-09T07:07:16.744Z,84.57
2017-11-09T07:09:17.685Z,80.93
2017-11-09T07:11:18.642Z,79.27
2017-11-09T07:13:19.578Z,78.63
2017-11-09T07:15:20.534Z,80.10
2017-11-09T07:17:21.490Z,78.40
2017-11-09T07:19:22.467Z,76.77
2017-11-09T07:21:24.174Z,80.77
2017-11-09T07:23:25.120Z,79.90
2017-11-09T07:25:26.074Z,81.60
2017-11-09T07:27:27.033Z,78.87
2017-11-09T07:29:27.993Z,79.87
2017-11-09T07:31:28.978Z,78.37
2017-11-09T07:33:29.937Z,76.37
2017-11-09T07:35:30.875Z,78.77
2017-11-09T07:37:31.801Z,75.07
2017-11-09T07:39:32.891Z,77.03
2017-11-09T07:41:33.851Z,77.30
2017-11-09T07:43:34.793Z,77.63
2017-11-09T07:45:35.723Z,70.43
2017-11-09T07:47:36.645Z,68.00
2017-11-09T07:49:38.318Z,73.57
2017-11-09T07:51:39.261Z,72.50
2017-11-09T07:53:40.238Z,69.37
2017-11-09T07:55:41.179Z,68.67
2017-11-09T07:57:42.773Z,71.37
2017-11-09T07:59:44.468Z,66.27
2017-11-09T08:01:45.409Z,71.47
2017-11-09T08:03:46.431Z,76.37
2017-11-09T08:05:48.119Z,71.10
2017-11-09T08:07:49.085Z,71.83
2017-11-09T08:09:50.045Z,67.90
2017-11-09T08:11:50.997Z,69.07
2017-11-09T08:13:51.955Z,69.00
2017-11-09T08:15:52.928Z,70.40
2017-11-09T08:17:54.638Z,71.13
2017-11-09T08:19:55.609Z,72.33
2017-11-09T08:21:56.562Z,74.67
2017-11-09T08:23:58.369Z,71.60
2017-11-09T08:26:02.244Z,68.77
2017-11-09T08:28:04.742Z,71.90
2017-11-09T08:30:08.480Z,66.47
2017-11-09T08:32:11.099Z,69.30
2017-11-09T08:34:12.048Z,70.37
2017-11-09T08:36:13.093Z,69.90
2017-11-09T08:38:14.053Z,69.10
2017-11-09T08:40:15.027Z,67.60
2017-11-09T08:42:16.704Z,66.80
2017-11-09T08:44:17.646Z,63.20
2017-11-09T08:46:19.321Z,63.27
2017-11-09T08:48:20.252Z,62.87
2017-11-09T08:50:21.934Z,62.57
2017-11-09T08:52:22.907Z,64.23
2017-11-09T08:54:23.888Z,67.30
2017-11-09T08:56:25.608Z,61.67
2017-11-09T08:58:27.307Z,61.67
2017-11-09T09:00:29.053Z,60.17
2017-11-09T09:02:30.027Z,63.13
2017-11-09T09:04:31.014Z,56.70
2017-11-09T09:06:32.363Z,60.23
2017-11-09T09:08:33.376Z,57.60
2017-11-09T09:10:35.981Z,54.97
2017-11-09T09:12:37.013Z,62.87
2017-11-09T09:14:38.778Z,58.10
2017-11-09T09:16:40.529Z,59.07
2017-11-09T09:18:41.568Z,61.63
2017-11-09T09:20:48.822Z,59.93
2017-11-09T09:22:50.658Z,60.63
2017-11-09T09:25:12.880Z,56.17
2017-11-09T09:27:17.700Z,56.57
2017-11-09T09:29:20.515Z,58.87
2017-11-09T09:31:41.428Z,55.73
2017-11-09T09:33:48.560Z,59.10
2017-11-09T09:36:08.137Z,60.13
2017-11-09T09:38:11.754Z,61.20
2017-11-09T09:40:14.879Z,61.20
2017-11-09T09:42:15.905Z,61.27
2017-11-09T09:44:17.161Z,77.28
2017-11-09T09:46:18.275Z,68.80
2017-11-09T09:48:19.275Z,62.13
2017-11-09T09:50:20.574Z,63.17
2017-11-09T09:52:22.621Z,59.90
2017-11-09T09:54:23.763Z,63.93
2017-11-09T09:56:25.240Z,65.43
2017-11-09T10:01:04.199Z,63.87
2017-11-09T10:03:11.401Z,64.50
2017-11-09T10:05:12.426Z,61.53
2017-11-09T10:07:15.257Z,57.57
2017-11-09T10:11:54.729Z,59.10
2017-11-09T10:13:55.740Z,67.68
2017-11-09T10:15:56.729Z,70.73
2017-11-09T10:18:10.779Z,62.57
2017-11-09T10:20:11.935Z,67.37
2017-11-09T10:24:51.445Z,59.57
2017-11-09T10:26:52.675Z,66.37
2017-11-09T10:29:14.528Z,69.27
2017-11-09T10:31:15.521Z,66.63
2017-11-09T10:33:19.938Z,69.07
2017-11-09T10:35:21.546Z,66.77
2017-11-09T10:37:22.992Z,66.73
2017-11-09T10:39:40.252Z,65.50
2017-11-09T10:41:41.437Z,70.77
2017-11-09T10:43:43.178Z,67.40
2017-11-09T10:45:44.265Z,64.20
2017-11-09T10:47:45.246Z,65.40
2017-11-09T10:49:46.865Z,67.50
2017-11-09T10:52:10.690Z,64.47
2017-11-09T10:54:12.045Z,67.17
2017-11-09T10:58:37.624Z,68.97
2017-11-09T11:00:43.254Z,60.97
2017-11-09T11:05:38.483Z,59.30
2017-11-09T11:07:39.782Z,64.70
2017-11-09T11:10:11.146Z,63.17
2017-11-09T11:12:41.628Z,61.07
2017-11-09T11:16:58.375Z,62.27
2017-11-09T11:18:59.396Z,61.97
2017-11-09T11:21:00.418Z,59.17
2017-11-09T11:23:01.466Z,62.37
2017-11-09T11:25:02.827Z,59.57
2017-11-09T11:27:04.023Z,67.20
2017-11-09T11:29:05.194Z,61.67
2017-11-09T11:31:06.390Z,63.67
2017-11-09T11:33:07.510Z,64.87
2017-11-09T11:35:08.655Z,66.00
2017-11-09T11:37:20.745Z,59.77
2017-11-09T11:39:21.960Z,62.50
2017-11-09T11:41:23.127Z,60.40
2017-11-09T11:43:24.301Z,61.53
2017-11-09T11:45:25.502Z,61.83
2017-11-09T11:47:26.640Z,59.40
2017-11-09T11:49:50.116Z,57.40
2017-11-09T11:51:54.520Z,60.97
2017-11-09T11:53:55.510Z,62.63
2017-11-09T11:55:56.473Z,59.50
2017-11-09T11:57:58.203Z,58.40
2017-11-09T11:59:59.206Z,62.30
2017-11-09T12:02:00.244Z,62.53
2017-11-09T12:04:01.969Z,60.13
2017-11-09T12:06:03.073Z,59.97
2017-11-09T12:08:04.209Z,59.67
2017-11-09T12:10:05.207Z,54.97
2017-11-09T12:12:06.204Z,57.20
2017-11-09T12:16:18.078Z,52.87
2017-11-09T12:18:19.071Z,54.77
2017-11-09T12:20:20.078Z,54.73
2017-11-09T12:22:21.371Z,56.83
2017-11-09T12:24:22.401Z,52.77
2017-11-09T12:26:23.370Z,54.50
2017-11-09T12:28:24.521Z,56.70
2017-11-09T12:30:26.323Z,54.60
2017-11-09T12:32:27.337Z,52.33
2017-11-09T12:34:52.337Z,51.37
2017-11-09T12:36:54.500Z,51.40
2017-11-09T12:38:55.613Z,50.23
2017-11-09T12:40:56.647Z,50.77
2017-11-09T12:43:01.365Z,51.30
2017-11-09T12:45:03.225Z,52.87
2017-11-09T12:47:04.587Z,48.60
2017-11-09T12:49:05.582Z,47.00
2017-11-09T12:51:06.574Z,47.10
2017-11-09T12:55:20.848Z,48.27
2017-11-09T12:57:22.646Z,48.07
2017-11-09T12:59:23.621Z,49.17
2017-11-09T13:01:24.806Z,48.00
2017-11-09T13:03:25.793Z,51.37
2017-11-09T13:05:26.772Z,51.03
2017-11-09T13:07:27.745Z,49.83
2017-11-09T13:09:28.721Z,55.83
2017-11-09T13:11:29.746Z,50.50
2017-11-09T13:13:30.793Z,52.43
2017-11-09T13:15:32.550Z,52.00
2017-11-09T13:17:34.315Z,53.07
2017-11-09T13:19:35.318Z,49.90
2017-11-09T13:21:36.340Z,51.80
2017-11-09T13:23:37.330Z,54.63
2017-11-09T13:25:38.310Z,54.47
2017-11-09T13:27:42.057Z,55.23
2017-11-09T13:29:48.140Z,50.07
2017-11-09T13:31:49.353Z,52.30
2017-11-09T13:33:50.364Z,53.67
2017-11-09T13:35:52.095Z,54.10
2017-11-09T13:37:53.085Z,57.20
2017-11-09T13:39:54.104Z,55.27
2017-11-09T13:41:55.105Z,55.03
2017-11-09T13:43:56.090Z,56.30
2017-11-09T13:45:57.578Z,57.40
2017-11-09T13:47:58.579Z,56.60
2017-11-09T13:49:59.638Z,65.62
2017-11-09T13:52:02.500Z,63.17
2017-11-09T13:54:03.570Z,59.43
2017-11-09T13:56:04.595Z,58.40
2017-11-09T13:58:05.608Z,59.50
2017-11-09T14:00:14.121Z,55.03
2017-11-09T14:02:15.973Z,53.60
2017-11-09T14:04:17.066Z,55.67
2017-11-09T14:06:18.090Z,54.87
2017-11-09T14:08:19.112Z,55.53
2017-11-09T14:10:20.130Z,54.80
2017-11-09T14:12:21.157Z,51.77
2017-11-09T14:14:22.275Z,49.30
2017-11-09T14:16:28.406Z,52.70
2017-11-09T14:18:30.241Z,50.90
2017-11-09T14:23:12.197Z,49.03
2017-11-09T14:25:17.141Z,54.10
2017-11-09T14:29:35.612Z,47.93
2017-11-09T14:31:36.862Z,48.57
2017-11-09T14:36:07.141Z,51.40
2017-11-09T14:38:08.513Z,45.67
2017-11-09T14:40:09.531Z,48.00
2017-11-09T14:42:10.649Z,45.77
2017-11-09T14:44:11.641Z,46.27
2017-11-09T14:46:12.589Z,46.00
2017-11-09T14:48:13.628Z,48.40
2017-11-09T14:50:14.559Z,47.13
2017-11-09T14:52:15.524Z,46.07
2017-11-09T14:54:16.488Z,48.57
2017-11-09T14:56:17.484Z,45.53
2017-11-09T14:58:18.445Z,48.70
2017-11-09T15:00:19.452Z,43.67
2017-11-09T15:02:20.414Z,47.97
2017-11-09T15:04:21.405Z,48.50
2017-11-09T15:06:22.396Z,46.90
2017-11-09T15:08:23.433Z,43.27
2017-11-09T15:10:24.495Z,45.50
2017-11-09T15:12:26.218Z,45.57
2017-11-09T15:14:27.193Z,46.47
2017-11-09T15:16:28.434Z,40.73
2017-11-09T15:18:29.511Z,40.90
2017-11-09T15:20:30.514Z,44.30
2017-11-09T15:22:31.522Z,44.17
2017-11-09T15:24:32.493Z,44.40
2017-11-09T15:26:33.524Z,46.23
2017-11-09T15:28:34.495Z,41.10
2017-11-09T15:30:35.561Z,44.57
2017-11-09T15:32:36.597Z,45.03
2017-11-09T15:34:37.609Z,44.07
2017-11-09T15:36:38.613Z,45.30
2017-11-09T15:38:39.608Z,45.60
2017-11-09T15:40:40.564Z,45.70
2017-11-09T15:42:41.581Z,45.83
2017-11-09T15:44:42.564Z,45.97
2017-11-09T15:46:43.603Z,45.37
2017-11-09T15:48:44.693Z,44.17
2017-11-09T15:50:45.720Z,48.30
2017-11-09T15:52:46.701Z,47.87
2017-11-09T15:54:48.422Z,48.10
2017-11-09T15:56:49.390Z,47.67
2017-11-09T15:58:50.379Z,45.57
2017-11-09T16:00:51.351Z,47.80
2017-11-09T16:02:52.341Z,44.20
2017-11-09T16:04:53.329Z,45.10
2017-11-09T16:06:54.332Z,45.70
2017-11-09T16:08:55.312Z,49.43
2017-11-09T16:10:56.306Z,48.47
2017-11-09T16:12:57.300Z,43.07
2017-11-09T16:14:58.281Z,45.33
2017-11-09T16:16:59.349Z,51.13
2017-11-09T16:19:00.417Z,45.50
2017-11-09T16:21:02.182Z,47.67
2017-11-09T16:23:03.258Z,49.63
2017-11-09T16:25:04.324Z,51.30
2017-11-09T16:27:05.377Z,49.87
2017-11-09T16:29:06.395Z,50.10
2017-11-09T16:31:07.370Z,47.50
2017-11-09T16:33:08.415Z,51.20
2017-11-09T16:35:09.415Z,49.27
2017-11-09T16:37:11.165Z,48.43
2017-11-09T16:39:12.204Z,53.97
2017-11-09T16:41:13.237Z,50.60
2017-11-09T16:43:14.246Z,50.23
2017-11-09T16:45:15.345Z,50.77
2017-11-09T16:47:16.348Z,51.20
2017-11-09T16:49:17.390Z,52.27
2017-11-09T16:51:18.365Z,48.23
2017-11-09T16:53:21.175Z,51.90
2017-11-09T16:55:22.232Z,51.07
2017-11-09T16:57:23.281Z,51.77
2017-11-09T16:59:24.291Z,53.97
2017-11-09T17:01:25.312Z,54.07
2017-11-09T17:03:26.337Z,50.77
2017-11-09T17:05:28.070Z,52.80
2017-11-09T17:07:29.081Z,53.37
2017-11-09T17:09:30.085Z,54.80
2017-11-09T17:11:31.050Z,53.40
2017-11-09T17:13:32.770Z,51.50
2017-11-09T17:15:33.760Z,56.97
2017-11-09T17:17:35.554Z,54.23
2017-11-09T17:21:42.691Z,59.50
2017-11-09T17:23:45.263Z,50.10
2017-11-09T17:25:46.338Z,55.67
2017-11-09T17:27:47.513Z,54.67
2017-11-09T17:29:49.255Z,55.63
2017-11-09T17:31:50.312Z,55.00
2017-11-09T17:33:51.286Z,59.33
2017-11-09T17:35:52.337Z,54.80
2017-11-09T17:37:53.382Z,57.70
2017-11-09T17:39:54.451Z,57.37
2017-11-09T17:41:57.214Z,56.83
2017-11-09T17:43:59.061Z,59.40
2017-11-09T17:46:00.118Z,57.63
2017-11-09T17:48:01.104Z,55.83
2017-11-09T17:50:02.116Z,55.83
2017-11-09T17:52:03.930Z,55.80
2017-11-09T17:54:04.940Z,59.40
2017-11-09T17:56:06.633Z,54.80
2017-11-09T17:58:07.716Z,54.80
2017-11-09T18:00:13.669Z,56.53
2017-11-09T18:02:14.670Z,55.43
2017-11-09T18:04:15.668Z,59.63
2017-11-09T18:06:16.703Z,59.60
2017-11-09T18:08:17.692Z,59.13
2017-11-09T18:10:18.665Z,58.87
2017-11-09T18:12:19.622Z,57.17
2017-11-09T18:14:20.678Z,58.63
2017-11-09T18:16:21.719Z,62.50
2017-11-09T18:18:22.691Z,74.20
2017-11-09T18:20:23.693Z,65.20
2017-11-09T18:22:26.670Z,60.97
2017-11-09T18:24:27.660Z,64.03
2017-11-09T18:26:28.719Z,62.97
2017-11-09T18:28:29.709Z,59.90
2017-11-09T18:30:30.765Z,61.70
2017-11-09T18:32:31.806Z,61.47
2017-11-09T18:34:32.846Z,60.50
2017-11-09T18:36:33.870Z,65.53
2017-11-09T18:38:34.921Z,63.50
2017-11-09T18:40:35.870Z,63.27
2017-11-09T18:42:36.904Z,63.70
2017-11-09T18:44:37.907Z,63.40
2017-11-09T18:46:38.963Z,62.33
2017-11-09T18:48:39.916Z,62.13
2017-11-09T18:50:40.903Z,62.00
2017-11-09T18:52:41.941Z,63.37
2017-11-09T18:54:42.977Z,60.77
2017-11-09T18:56:44.020Z,62.07
2017-11-09T18:58:45.025Z,60.90
2017-11-09T19:00:48.943Z,55.63
2017-11-09T19:02:49.928Z,59.70
2017-11-09T19:04:51.865Z,61.33
2017-11-09T19:06:52.872Z,59.37
2017-11-09T19:08:53.848Z,61.70
2017-11-09T19:10:55.582Z,62.90
2017-11-09T19:12:56.660Z,59.70
2017-11-09T19:14:58.402Z,56.50
2017-11-09T19:16:59.480Z,58.43
2017-11-09T19:19:00.506Z,54.97
2017-11-09T19:21:02.268Z,57.23
2017-11-09T19:23:03.242Z,59.37
2017-11-09T19:25:04.254Z,51.87
2017-11-09T19:27:05.335Z,59.03
2017-11-09T19:29:06.326Z,58.37
2017-11-09T19:31:07.320Z,58.63
2017-11-09T19:33:09.010Z,59.60
2017-11-09T19:35:09.984Z,57.87
2017-11-09T19:37:11.053Z,57.33
2017-11-09T19:39:12.041Z,58.07
2017-11-09T19:41:13.080Z,59.10
2017-11-09T19:43:14.045Z,56.63
2017-11-09T19:45:15.017Z,56.40
2017-11-09T19:47:16.200Z,55.20
2017-11-09T19:49:17.943Z,55.67
2017-11-09T19:51:18.978Z,56.60
2017-11-09T19:53:20.041Z,50.00
2017-11-09T19:55:21.149Z,56.70
2017-11-09T19:57:22.204Z,55.97
2017-11-09T19:59:23.206Z,57.03
2017-11-09T20:01:24.313Z,50.97
2017-11-09T20:03:25.318Z,47.57
2017-11-09T20:05:26.287Z,49.43
2017-11-09T20:07:28.062Z,51.30
2017-11-09T20:09:29.115Z,51.57
2017-11-09T20:11:30.110Z,48.50
2017-11-09T20:13:31.179Z,53.57
2017-11-09T20:15:32.154Z,52.00
2017-11-09T20:17:33.151Z,51.73
2017-11-09T20:19:34.385Z,56.13
2017-11-09T20:21:36.145Z,53.43
2017-11-09T20:23:38.032Z,53.80
2017-11-09T20:25:39.089Z,55.83
2017-11-09T20:27:40.147Z,54.93
2017-11-09T20:29:41.344Z,52.60
2017-11-09T20:31:42.374Z,51.47
2017-11-09T20:33:43.361Z,54.17
2017-11-09T20:35:44.476Z,52.17
2017-11-09T20:37:45.501Z,52.83
2017-11-09T20:39:46.584Z,51.17
2017-11-09T20:41:47.605Z,48.67
2017-11-09T20:43:48.723Z,54.50
2017-11-09T20:45:50.490Z,51.47
2017-11-09T20:47:52.267Z,50.87
2017-11-09T20:49:55.153Z,49.17
2017-11-09T20:51:56.139Z,51.33
2017-11-09T20:53:57.145Z,51.00
2017-11-09T20:55:58.927Z,53.00
2017-11-09T20:57:59.937Z,52.07
2017-11-09T21:00:00.977Z,51.47
2017-11-09T21:02:01.976Z,51.67
2017-11-09T21:04:03.007Z,53.37
2017-11-09T21:06:04.023Z,52.40
2017-11-09T21:08:05.851Z,55.20
2017-11-09T21:10:06.882Z,53.80
2017-11-09T21:12:07.853Z,54.60
2017-11-09T21:14:08.844Z,51.57
2017-11-09T21:16:10.589Z,51.80
2017-11-09T21:18:11.619Z,55.53
2017-11-09T21:20:12.641Z,47.77
2017-11-09T21:22:13.670Z,48.90
2017-11-09T21:24:14.642Z,50.60
2017-11-09T21:26:16.366Z,47.33
2017-11-09T21:28:18.104Z,51.57
2017-11-09T21:30:19.171Z,52.23
2017-11-09T21:32:20.878Z,51.83
2017-11-09T21:34:21.869Z,49.50
2017-11-09T21:36:22.846Z,45.73
2017-11-09T21:38:23.841Z,48.93
2017-11-09T21:40:24.849Z,40.90
2017-11-09T21:42:25.858Z,43.73
2017-11-09T21:44:26.994Z,45.40
2017-11-09T21:46:27.978Z,47.30
2017-11-09T21:48:28.972Z,43.03
2017-11-09T21:50:30.002Z,45.03
2017-11-09T21:52:31.013Z,39.70
2017-11-09T21:54:32.813Z,41.80
2017-11-09T21:56:33.801Z,37.47
2017-11-09T21:58:34.771Z,42.07
2017-11-09T22:00:36.520Z,42.77
2017-11-09T22:02:37.493Z,41.17
2017-11-09T22:04:38.463Z,42.13
2017-11-09T22:06:39.539Z,38.77
2017-11-09T22:08:40.551Z,38.93
2017-11-09T22:10:41.635Z,40.90
2017-11-09T22:12:42.602Z,46.00
2017-11-09T22:14:43.576Z,43.50
2017-11-09T22:16:44.560Z,40.10
2017-11-09T22:18:45.558Z,39.93
2017-11-09T22:20:47.289Z,37.90
2017-11-09T22:22:48.451Z,37.60
2017-11-09T22:24:50.222Z,41.00
2017-11-09T22:26:51.963Z,35.80
2017-11-09T22:28:52.954Z,37.70
2017-11-09T22:30:53.985Z,37.30
2017-11-09T22:32:54.989Z,37.70
2017-11-09T22:34:56.028Z,37.27
2017-11-09T22:36:57.085Z,38.70
2017-11-09T22:38:58.104Z,38.03
2017-11-09T22:40:59.072Z,34.43
2017-11-09T22:43:00.141Z,34.87
2017-11-09T22:45:01.109Z,35.47
2017-11-09T22:47:02.133Z,34.80
2017-11-09T22:49:03.162Z,35.03
2017-11-09T22:51:04.125Z,36.83
2017-11-09T22:53:05.122Z,37.67
2017-11-09T22:55:06.907Z,34.60
2017-11-09T22:57:07.912Z,38.77
2017-11-09T22:59:08.907Z,37.63
2017-11-09T23:01:09.873Z,40.50
2017-11-09T23:03:10.884Z,39.20
2017-11-09T23:05:11.889Z,40.00
2017-11-09T23:07:12.997Z,41.07
2017-11-09T23:09:14.000Z,40.07
2017-11-09T23:11:15.833Z,41.23
2017-11-09T23:13:16.867Z,40.37
2017-11-09T23:15:17.833Z,41.20
2017-11-09T23:17:18.824Z,43.10
2017-11-09T23:19:19.829Z,42.97
2017-11-09T23:21:20.860Z,42.33
2017-11-09T23:23:21.923Z,40.20
2017-11-09T23:25:23.021Z,42.67
2017-11-09T23:27:23.999Z,44.07
2017-11-09T23:29:24.999Z,36.07
2017-11-09T23:31:25.988Z,37.17
2017-11-09T23:33:27.006Z,37.50
2017-11-09T23:35:28.003Z,37.67
2017-11-09T23:37:28.993Z,37.50
2017-11-09T23:39:30.041Z,39.13
2017-11-09T23:41:31.021Z,37.27
2017-11-09T23:43:31.980Z,36.00
2017-11-09T23:45:32.940Z,36.07
2017-11-09T23:47:33.924Z,32.20
2017-11-09T23:49:35.716Z,37.20
2017-11-09T23:51:36.716Z,34.47
2017-11-09T23:53:37.672Z,35.90
2017-11-09T23:55:38.645Z,37.93
2017-11-09T23:57:39.670Z,35.20
2017-11-09T23:59:41.502Z,34.47
